Time;durP1;ratioP1;P1;durP2;ratioP2;P2;SDS_P1;SDS_P2;PMS_P1;PMS_P2;Temp;Humidity;BMP_temperature;BMP_pressure;BME280_temperature;BME280_humidity;BME280_pressure;Samples;Min_cycle;Max_cycle;Signal;HPM_P1;HPM_P2
2021/12/22 04:03:10;;;;;;;71.68;24.20;;;-3272.60;95.20;;;;;;5132155;27;20130;-47
2021/12/22 04:05:35;;;;;;;86.88;30.05;;;-3272.70;95.30;;;;;;5132371;28;20034;-49
2021/12/22 04:08:01;;;;;;;98.35;29.42;;;-3272.80;95.40;;;;;;5132657;28;20027;-49
2021/12/22 04:10:27;;;;;;;103.65;38.72;;;-3272.90;95.40;;;;;;5113832;28;20026;-49
2021/12/22 04:12:55;;;;;;;110.03;30.73;;;-3272.90;95.30;;;;;;5131821;28;20027;-47
2021/12/22 04:15:23;;;;;;;132.80;36.33;;;-3273.00;95.20;;;;;;5114373;28;20028;-49
2021/12/22 04:17:48;;;;;;;102.70;32.33;;;-3273.00;95.10;;;;;;5132123;28;20099;-49
2021/12/22 04:20:14;;;;;;;122.70;35.22;;;-3273.00;94.90;;;;;;5131882;28;20081;-48
2021/12/22 04:22:40;;;;;;;126.80;36.17;;;-3273.10;94.70;;;;;;5113994;28;20035;-51
2021/12/22 04:25:08;;;;;;;116.95;35.05;;;-3273.10;94.60;;;;;;5131922;28;20517;-50
2021/12/22 04:27:34;;;;;;;132.63;37.38;;;-3273.00;94.50;;;;;;5131810;28;20023;-49
2021/12/22 04:30:00;;;;;;;115.82;37.00;;;-3273.00;94.40;;;;;;5112779;28;20130;-50
2021/12/22 04:32:26;;;;;;;120.45;37.28;;;-3273.10;94.50;;;;;;5131639;28;20088;-49
2021/12/22 04:34:51;;;;;;;132.85;35.53;;;-3273.20;94.50;;;;;;5132030;28;20050;-48
2021/12/22 04:37:17;;;;;;;111.47;34.13;;;-3273.20;94.30;;;;;;5112425;28;20019;-48
2021/12/22 04:39:43;;;;;;;117.90;36.05;;;-3273.20;94.30;;;;;;5113941;28;20476;-48
2021/12/22 04:42:08;;;;;;;118.55;36.58;;;-3273.30;94.10;;;;;;5131754;28;20032;-50
2021/12/22 04:44:37;;;;;;;140.38;37.03;;;-3273.20;93.80;;;;;;5131429;28;20023;-48
2021/12/22 04:47:03;;;;;;;132.82;35.20;;;-3273.20;93.70;;;;;;5131427;28;20019;-48
2021/12/22 04:49:29;;;;;;;104.93;32.42;;;-3273.20;93.70;;;;;;5131242;28;20058;-51
2021/12/22 04:51:56;;;;;;;113.00;34.55;;;-3273.20;93.60;;;;;;5131252;28;20465;-48
2021/12/22 04:56:54;;;;;;;125.93;38.17;;;-3273.20;93.60;;;;;;5130712;28;20034;-48
2021/12/22 04:59:20;;;;;;;114.68;34.88;;;-3273.30;93.60;;;;;;5130644;28;20023;-51
2021/12/22 05:01:45;;;;;;;98.38;29.77;;;-3273.30;93.60;;;;;;5130225;28;20051;-48
2021/12/22 05:04:11;;;;;;;110.13;33.67;;;-3273.20;93.50;;;;;;5131235;28;20498;-48
2021/12/22 05:06:37;;;;;;;92.82;27.77;;;-3273.10;93.40;;;;;;5112431;28;20023;-48
2021/12/22 05:09:07;;;;;;;104.45;33.65;;;-3273.20;93.50;;;;;;5130946;28;20027;-48
2021/12/22 05:11:34;;;;;;;100.10;33.60;;;-3273.30;93.70;;;;;;5130965;28;20457;-49
2021/12/22 05:13:59;;;;;;;93.93;31.38;;;-3273.10;93.20;;;;;;5119954;28;20072;-50
2021/12/22 05:16:25;;;;;;;99.53;29.30;;;-3273.20;93.20;;;;;;5116938;28;20039;-49
2021/12/22 05:21:18;;;;;;;82.38;26.58;;;-3273.10;93.10;;;;;;5117572;28;20465;-50
2021/12/22 05:23:44;;;;;;;90.35;30.17;;;-3273.00;92.80;;;;;;5116464;28;20020;-48
2021/12/22 05:26:09;;;;;;;77.00;28.13;;;-3273.00;92.90;;;;;;5117085;28;20026;-47
2021/12/22 05:28:35;;;;;;;80.32;29.58;;;-3272.90;92.90;;;;;;5117720;28;20023;-49
2021/12/22 05:31:00;;;;;;;101.40;33.28;;;-3272.90;93.00;;;;;;5098617;28;20023;-48
2021/12/22 05:33:26;;;;;;;98.45;33.33;;;-3273.00;93.00;;;;;;5097993;28;20023;-50
2021/12/22 05:35:52;;;;;;;88.55;31.13;;;-3273.00;93.00;;;;;;5115995;28;20502;-50
2021/12/22 05:38:17;;;;;;;88.80;31.30;;;-3272.90;93.00;;;;;;5117218;28;20035;-48
2021/12/22 05:40:43;;;;;;;96.32;30.83;;;-3273.00;93.10;;;;;;5116451;28;20024;-51
2021/12/22 05:43:09;;;;;;;90.82;33.22;;;-3272.90;93.00;;;;;;5097881;28;20027;-50
2021/12/22 05:45:37;;;;;;;82.15;31.30;;;-3272.90;93.20;;;;;;5117949;28;20055;-41
2021/12/22 05:48:04;;;;;;;81.60;31.08;;;-3272.80;93.20;;;;;;5129637;28;20055;-38
2021/12/22 05:50:30;;;;;;;80.38;29.08;;;-3272.80;93.30;;;;;;5116626;28;20047;-47
2021/12/22 05:52:56;;;;;;;70.88;27.08;;;-3272.80;93.40;;;;;;5115740;28;20487;-39
2021/12/22 05:55:21;;;;;;;68.43;27.33;;;-3272.90;93.50;;;;;;5097386;28;20114;-40
2021/12/22 05:57:47;;;;;;;58.53;20.98;;;-3273.00;93.40;;;;;;5116716;28;20019;-37
2021/12/22 06:00:13;;;;;;;62.35;26.30;;;-3272.90;93.00;;;;;;5116347;28;20079;-38
2021/12/22 06:02:40;;;;;;;73.20;25.95;;;-3272.90;93.20;;;;;;5115659;28;20044;-39
2021/12/22 06:05:06;;;;;;;64.53;24.85;;;-3272.90;92.90;;;;;;5097643;28;20023;-38
2021/12/22 06:07:32;;;;;;;57.75;23.98;;;-3272.90;93.00;;;;;;5116509;28;20384;-38
2021/12/22 06:09:57;;;;;;;48.53;22.55;;;-3272.90;92.90;;;;;;5116485;28;20023;-38
2021/12/22 06:12:23;;;;;;;59.78;23.00;;;-3272.90;92.90;;;;;;5116643;28;20070;-39
2021/12/22 06:14:49;;;;;;;58.50;25.17;;;-3272.90;92.90;;;;;;5115298;28;20115;-39
2021/12/22 06:17:14;;;;;;;60.83;23.52;;;-3273.00;92.80;;;;;;5115423;28;20023;-39
2021/12/22 06:19:40;;;;;;;60.83;23.45;;;-3272.90;92.80;;;;;;5115640;28;20050;-39
2021/12/22 06:22:06;;;;;;;50.88;23.02;;;-3273.00;92.70;;;;;;5115512;28;20212;-38
2021/12/22 06:24:34;;;;;;;46.00;19.75;;;-3273.00;92.70;;;;;;5114200;28;20028;-37
2021/12/22 06:27:00;;;;;;;53.65;22.85;;;-3273.00;92.60;;;;;;5115555;28;20103;-37
2021/12/22 06:29:25;;;;;;;49.85;24.45;;;-3272.90;92.60;;;;;;5115825;28;20460;-38
2021/12/22 06:31:52;;;;;;;58.38;23.75;;;-3273.00;92.60;;;;;;5116002;28;20024;-38
2021/12/22 06:34:17;;;;;;;54.17;20.08;;;-3273.00;92.40;;;;;;5115164;28;20053;-38
2021/12/22 06:36:43;;;;;;;51.50;21.67;;;-3273.00;92.40;;;;;;5115535;28;20027;-38
2021/12/22 06:39:09;;;;;;;55.55;20.60;;;-3272.90;92.30;;;;;;5115381;28;20028;-39
2021/12/22 06:41:35;;;;;;;62.25;24.25;;;-3272.90;92.40;;;;;;5115349;28;20364;-38
2021/12/22 06:44:01;;;;;;;61.55;24.40;;;-3272.90;92.30;;;;;;5114759;28;20031;-38
2021/12/22 06:46:27;;;;;;;68.38;24.73;;;-3272.90;92.10;;;;;;5115647;28;20208;-39
2021/12/22 06:48:52;;;;;;;78.32;26.20;;;-3273.00;92.30;;;;;;5114679;28;20030;-38
2021/12/22 06:51:18;;;;;;;80.65;25.30;;;-3272.90;91.90;;;;;;5096206;28;20364;-38
2021/12/22 06:53:44;;;;;;;71.90;25.98;;;-3272.90;92.00;;;;;;5114589;28;20082;-38
2021/12/22 06:56:09;;;;;;;75.90;28.70;;;-3272.90;92.10;;;;;;5114342;28;20035;-39
2021/12/22 06:58:35;;;;;;;90.80;27.02;;;-3272.90;92.10;;;;;;5114961;28;20032;-38
2021/12/22 07:01:01;;;;;;;77.63;26.40;;;-3272.80;92.00;;;;;;5114465;28;20044;-40
2021/12/22 07:03:27;;;;;;;78.05;29.20;;;-3272.90;92.10;;;;;;5096679;28;20032;-38
2021/12/22 07:05:52;;;;;;;83.43;27.27;;;-3272.90;92.00;;;;;;5114729;28;20024;-39
2021/12/22 07:08:18;;;;;;;90.07;31.17;;;-3272.80;92.00;;;;;;5114984;28;20016;-39
2021/12/22 07:10:44;;;;;;;82.90;27.55;;;-3272.90;92.00;;;;;;5114939;28;20022;-40
2021/12/22 07:13:11;;;;;;;102.65;32.03;;;-3272.80;91.80;;;;;;5115312;28;20039;-38
2021/12/22 07:15:37;;;;;;;81.72;30.08;;;-3272.90;91.90;;;;;;5114441;28;20088;-40
2021/12/22 07:18:02;;;;;;;92.82;31.75;;;-3273.00;91.90;;;;;;5114346;28;20040;-38
2021/12/22 07:20:28;;;;;;;102.85;32.47;;;-3273.00;91.70;;;;;;5114587;28;20030;-38
2021/12/22 07:22:54;;;;;;;110.03;36.13;;;-3273.00;91.40;;;;;;5114460;28;20030;-38
2021/12/22 07:25:23;;;;;;;111.97;34.63;;;-3272.90;91.50;;;;;;5095925;28;20020;-38
2021/12/22 07:27:49;;;;;;;95.53;32.33;;;-3272.90;91.50;;;;;;5114457;28;20019;-38
2021/12/22 07:30:15;;;;;;;109.65;33.80;;;-3272.90;91.50;;;;;;5113813;28;20043;-38
2021/12/22 07:32:40;;;;;;;111.47;34.47;;;-3272.90;91.60;;;;;;5114271;28;20032;-39
2021/12/22 07:35:38;;;;;;;95.32;33.42;;;-3273.00;91.70;;;;;;5113807;28;20032;-38
2021/12/22 07:38:25;;;;;;;90.95;33.10;;;-3273.10;91.50;;;;;;5095983;28;20059;-38
2021/12/22 07:40:56;;;;;;;92.45;33.15;;;-3273.00;91.20;;;;;;5114942;28;20030;-38
2021/12/22 07:43:22;;;;;;;90.72;31.85;;;-3273.10;91.10;;;;;;5113759;28;20028;-39
2021/12/22 07:45:48;;;;;;;83.93;30.63;;;-3273.10;91.10;;;;;;5113672;28;20463;-38
2021/12/22 07:48:14;;;;;;;86.15;30.38;;;-3273.00;91.10;;;;;;5113876;28;20073;-39
2021/12/22 07:50:40;;;;;;;78.57;27.17;;;-3273.00;91.10;;;;;;5113432;28;20522;-39
2021/12/22 07:53:05;;;;;;;80.10;29.45;;;-3273.00;91.30;;;;;;5113766;28;20434;-39
2021/12/22 07:55:31;;;;;;;80.97;30.35;;;-3273.10;91.30;;;;;;5113933;28;20020;-38
2021/12/22 07:57:57;;;;;;;77.40;28.85;;;-3273.10;91.20;;;;;;5113884;28;20051;-38
2021/12/22 08:00:23;;;;;;;82.75;29.77;;;-3273.10;91.20;;;;;;5113688;28;20028;-39
2021/12/22 14:03:16;;;;;;;36.60;18.88;;;1.30;89.70;;;;;;5111858;27;20154;-38
2021/12/22 14:05:42;;;;;;;37.10;20.02;;;1.50;90.00;;;;;;5111236;28;20320;-39
2021/12/22 14:08:24;;;;;;;33.35;17.90;;;1.60;89.80;;;;;;5110990;28;20024;-39
2021/12/22 14:10:50;;;;;;;26.92;15.77;;;1.70;88.90;;;;;;5111507;28;20020;-39
2021/12/22 14:13:27;;;;;;;29.48;16.88;;;1.60;88.70;;;;;;5109695;28;20032;-40
2021/12/22 14:15:53;;;;;;;34.60;18.85;;;1.70;88.90;;;;;;5110742;28;20020;-38
2021/12/22 14:18:19;;;;;;;25.88;15.90;;;1.60;88.60;;;;;;5110324;28;20019;-39
2021/12/22 14:20:45;;;;;;;27.77;17.48;;;1.80;88.90;;;;;;5111474;28;20020;-39
2021/12/22 14:23:11;;;;;;;31.70;17.88;;;1.90;88.30;;;;;;5111066;28;20390;-39
2021/12/22 14:25:37;;;;;;;32.75;18.33;;;1.80;88.10;;;;;;5111431;28;20034;-41
2021/12/22 14:28:24;;;;;;;38.92;18.15;;;1.60;88.00;;;;;;5109642;28;20444;-39
2021/12/22 14:30:50;;;;;;;30.15;17.55;;;1.70;88.70;;;;;;5111006;28;20020;-40
2021/12/22 14:33:19;;;;;;;30.83;17.45;;;1.50;88.50;;;;;;5092673;28;20159;-39
2021/12/22 14:35:52;;;;;;;32.55;18.05;;;1.50;88.70;;;;;;5109673;28;20020;-38
2021/12/22 14:38:21;;;;;;;30.83;17.48;;;1.40;89.10;;;;;;5109734;28;20072;-39
2021/12/22 14:40:58;;;;;;;34.15;18.55;;;1.30;89.20;;;;;;5110618;28;20053;-38
2021/12/22 14:43:38;;;;;;;37.13;18.95;;;1.30;89.60;;;;;;5111316;28;20027;-39
2021/12/22 14:46:05;;;;;;;29.63;17.00;;;1.40;90.20;;;;;;5110872;28;20103;-39
2021/12/22 14:48:38;;;;;;;31.58;17.02;;;1.50;89.30;;;;;;5110973;28;20020;-39
2021/12/22 14:51:12;;;;;;;29.98;18.05;;;1.50;88.90;;;;;;5109643;28;20051;-38
2021/12/22 14:53:40;;;;;;;25.80;16.35;;;1.30;89.20;;;;;;5109660;28;20360;-39
2021/12/22 14:56:11;;;;;;;28.67;17.10;;;1.20;89.70;;;;;;5110749;28;20107;-38
2021/12/22 14:58:38;;;;;;;29.25;17.80;;;1.30;90.10;;;;;;5110736;28;20123;-39
2021/12/22 15:01:09;;;;;;;31.83;18.00;;;1.30;89.70;;;;;;5110589;28;20040;-38
2021/12/22 15:03:36;;;;;;;27.20;16.83;;;1.10;89.70;;;;;;5110418;28;20030;-38
2021/12/22 15:06:06;;;;;;;30.83;17.35;;;1.10;90.20;;;;;;5109736;28;20024;-39
2021/12/22 15:08:32;;;;;;;30.52;17.88;;;1.20;90.10;;;;;;5111085;28;20080;-39
2021/12/22 15:11:00;;;;;;;28.63;17.83;;;0.90;89.90;;;;;;5110765;28;20027;-38
2021/12/22 15:13:26;;;;;;;27.38;18.35;;;0.90;90.30;;;;;;5101103;28;20103;-38
2021/12/22 15:15:52;;;;;;;34.88;18.88;;;1.00;90.60;;;;;;5096175;28;20035;-38
2021/12/22 15:18:18;;;;;;;32.28;18.90;;;1.00;90.10;;;;;;5095178;28;20036;-38
2021/12/22 15:20:44;;;;;;;28.45;18.90;;;0.80;90.30;;;;;;5096433;28;20058;-38
2021/12/22 15:23:12;;;;;;;36.80;21.00;;;0.70;90.80;;;;;;5095178;28;20085;-39
2021/12/22 15:25:38;;;;;;;39.75;21.08;;;0.70;91.10;;;;;;5095333;28;20016;-38
2021/12/22 15:28:04;;;;;;;43.47;22.48;;;0.50;91.20;;;;;;5095675;28;20028;-38
2021/12/22 15:30:30;;;;;;;32.60;18.75;;;0.50;91.50;;;;;;5096387;28;20066;-39
2021/12/22 15:32:56;;;;;;;38.50;21.23;;;0.40;91.50;;;;;;5096665;28;20387;-40
2021/12/22 15:35:22;;;;;;;31.63;19.92;;;0.50;91.80;;;;;;5095242;28;20024;-38
2021/12/22 15:37:49;;;;;;;33.95;20.40;;;0.50;91.60;;;;;;5095878;28;20468;-38
2021/12/22 15:40:15;;;;;;;37.08;22.95;;;0.60;91.60;;;;;;5095723;28;20143;-39
2021/12/22 15:42:42;;;;;;;40.15;23.38;;;0.60;91.50;;;;;;5095933;28;20529;-39
2021/12/22 15:45:08;;;;;;;34.65;20.88;;;0.50;91.40;;;;;;5096155;28;20020;-38
2021/12/22 15:47:35;;;;;;;32.15;21.70;;;0.50;91.60;;;;;;5094757;28;20024;-39
2021/12/22 15:50:02;;;;;;;41.97;22.63;;;0.30;91.60;;;;;;5096429;28;20035;-38
2021/12/22 15:52:28;;;;;;;41.03;22.35;;;0.30;92.00;;;;;;5095597;28;20043;-39
2021/12/22 15:54:54;;;;;;;42.20;23.40;;;0.30;92.30;;;;;;5095792;28;20028;-39
2021/12/22 15:57:20;;;;;;;40.65;21.05;;;0.30;92.30;;;;;;5095747;28;20020;-39
2021/12/22 15:59:46;;;;;;;35.85;21.98;;;0.30;92.20;;;;;;5095905;28;20051;-39
2021/12/22 16:02:11;;;;;;;34.92;21.33;;;0.20;91.90;;;;;;5095033;28;20125;-39
2021/12/22 16:04:37;;;;;;;41.80;22.02;;;0.20;92.10;;;;;;5095193;28;20035;-39
2021/12/22 16:07:03;;;;;;;41.38;21.63;;;0.00;92.20;;;;;;5095518;28;20494;-38
2021/12/22 16:09:29;;;;;;;34.67;20.50;;;0.00;92.40;;;;;;5093887;28;20476;-38
2021/12/22 16:11:55;;;;;;;36.55;19.73;;;0.00;92.50;;;;;;5095354;28;20134;-40
2021/12/22 16:14:20;;;;;;;43.10;21.48;;;-3276.70;92.60;;;;;;5095668;28;20365;-45
2021/12/22 16:16:46;;;;;;;31.15;20.15;;;0.00;92.90;;;;;;5092983;28;20067;-38
2021/12/22 16:19:12;;;;;;;35.38;21.75;;;0.10;92.90;;;;;;5095146;28;20028;-38
2021/12/22 16:21:38;;;;;;;39.72;21.85;;;0.20;92.60;;;;;;5095981;28;20028;-39
2021/12/22 16:24:04;;;;;;;42.28;22.55;;;0.10;92.10;;;;;;5093621;28;20472;-38
2021/12/22 16:26:29;;;;;;;39.58;22.63;;;0.20;91.90;;;;;;5095471;28;20035;-39
2021/12/22 16:28:55;;;;;;;38.80;22.67;;;0.00;91.70;;;;;;5095112;28;20016;-39
2021/12/22 16:31:24;;;;;;;39.83;21.55;;;0.10;92.10;;;;;;5095381;28;20023;-40
2021/12/22 16:33:49;;;;;;;38.05;22.05;;;0.30;92.00;;;;;;5094737;28;20361;-39
2021/12/22 16:36:15;;;;;;;39.38;23.55;;;0.20;91.60;;;;;;5094732;28;20039;-39
2021/12/22 16:38:41;;;;;;;37.65;22.63;;;0.20;91.60;;;;;;5094063;28;20033;-38
2021/12/22 16:41:07;;;;;;;37.28;21.55;;;0.20;91.50;;;;;;5095275;28;20028;-39
2021/12/22 16:43:32;;;;;;;40.50;21.13;;;0.20;91.50;;;;;;5093252;28;20484;-38
2021/12/22 16:45:58;;;;;;;41.92;23.63;;;0.10;91.50;;;;;;5094656;28;20016;-38
2021/12/22 16:48:24;;;;;;;41.95;21.33;;;0.10;91.60;;;;;;5094769;28;20202;-40
2021/12/22 16:50:51;;;;;;;37.75;23.45;;;0.10;91.50;;;;;;5093929;28;20108;-39
2021/12/22 16:53:16;;;;;;;33.78;19.55;;;0.10;91.60;;;;;;5093914;28;20039;-39
2021/12/22 16:55:42;;;;;;;36.50;21.42;;;0.10;91.50;;;;;;5093143;28;20020;-39
2021/12/22 16:58:10;;;;;;;34.55;22.45;;;0.00;91.40;;;;;;5093001;28;20028;-38
2021/12/22 17:00:36;;;;;;;37.08;22.92;;;0.00;91.50;;;;;;5094684;28;20127;-39
2021/12/22 17:03:02;;;;;;;35.92;21.70;;;0.00;91.50;;;;;;5093933;28;20089;-39
2021/12/22 17:05:29;;;;;;;36.92;22.08;;;-3276.70;91.50;;;;;;5076366;28;20077;-40
2021/12/22 17:07:55;;;;;;;39.88;23.45;;;-3276.70;91.70;;;;;;5094547;28;20048;-39
2021/12/22 17:10:21;;;;;;;40.35;24.17;;;-3276.70;92.00;;;;;;5094191;28;20032;-39
2021/12/22 17:12:46;;;;;;;43.90;24.38;;;-3276.70;92.00;;;;;;5094574;28;20106;-40
2021/12/22 17:15:14;;;;;;;41.00;24.42;;;0.00;92.10;;;;;;5094547;28;20132;-38
2021/12/22 17:17:41;;;;;;;39.17;23.38;;;-3276.70;91.90;;;;;;5094026;28;20028;-40
2021/12/22 17:20:09;;;;;;;39.72;22.05;;;-3276.50;91.80;;;;;;5093827;28;20164;-38
2021/12/22 17:22:37;;;;;;;39.33;23.02;;;-3276.60;92.10;;;;;;5094828;28;20024;-38
2021/12/22 17:25:07;;;;;;;41.95;23.85;;;-3276.70;92.30;;;;;;5092408;28;20030;-40
2021/12/22 17:27:34;;;;;;;40.53;22.70;;;-3276.70;92.20;;;;;;5094230;28;20024;-40
2021/12/22 17:30:00;;;;;;;42.65;24.05;;;-3276.70;91.80;;;;;;5093022;28;20465;-38
2021/12/22 17:32:26;;;;;;;36.85;21.17;;;-3276.70;91.80;;;;;;5092438;28;20020;-39
2021/12/22 17:34:51;;;;;;;60.08;35.17;;;-3276.70;91.70;;;;;;5094602;28;20042;-40
2021/12/22 17:37:17;;;;;;;38.28;23.00;;;-3276.60;91.70;;;;;;5093833;28;20055;-38
2021/12/22 17:39:43;;;;;;;36.35;22.80;;;-3276.50;91.90;;;;;;5093777;28;20349;-38
2021/12/22 17:42:08;;;;;;;37.58;22.98;;;-3276.50;92.00;;;;;;5093909;28;20039;-38
2021/12/22 17:44:34;;;;;;;37.17;23.98;;;-3276.50;92.20;;;;;;5093525;28;20150;-39
2021/12/22 17:47:00;;;;;;;37.38;23.50;;;-3276.50;92.20;;;;;;5093880;28;20080;-39
2021/12/22 17:49:26;;;;;;;36.97;22.65;;;-3276.50;92.30;;;;;;5093832;28;20030;-38
2021/12/22 17:51:52;;;;;;;43.40;22.85;;;-3276.50;92.30;;;;;;5092180;28;20118;-38
2021/12/22 17:54:18;;;;;;;36.22;22.20;;;-3276.40;92.30;;;;;;5093516;28;20078;-39
2021/12/22 17:56:44;;;;;;;43.80;23.15;;;-3276.40;92.40;;;;;;5093830;28;20426;-39
2021/12/22 17:59:09;;;;;;;33.53;21.27;;;-3276.40;92.30;;;;;;5093841;28;20021;-38
2021/12/22 18:01:36;;;;;;;36.60;20.63;;;-3276.40;92.30;;;;;;5093428;28;20078;-38
2021/12/22 18:04:03;;;;;;;37.25;20.52;;;-3276.40;92.30;;;;;;5093487;28;20089;-39
2021/12/22 18:06:33;;;;;;;35.42;19.45;;;-3276.40;92.30;;;;;;5091898;28;20431;-39
2021/12/22 18:09:05;;;;;;;37.10;22.43;;;-3276.40;92.20;;;;;;5093924;28;20031;-39
2021/12/22 18:11:33;;;;;;;30.50;20.05;;;-3276.20;92.20;;;;;;5093440;28;20024;-38
2021/12/22 18:13:59;;;;;;;40.55;22.45;;;-3276.30;92.20;;;;;;5093988;28;20069;-38
2021/12/22 18:16:24;;;;;;;35.03;21.25;;;-3276.40;92.20;;;;;;5092090;28;20459;-40
2021/12/22 18:18:50;;;;;;;34.08;20.50;;;-3276.50;91.70;;;;;;5093222;28;20056;-39
2021/12/22 18:21:17;;;;;;;40.03;22.35;;;-3276.50;91.40;;;;;;5091967;28;20028;-38
2021/12/22 18:23:44;;;;;;;38.90;22.83;;;-3276.50;91.20;;;;;;5094145;28;20475;-39
2021/12/22 18:26:10;;;;;;;37.72;21.35;;;-3276.40;91.40;;;;;;5094079;28;20023;-39
2021/12/22 18:28:36;;;;;;;37.53;21.98;;;-3276.50;91.60;;;;;;5093367;28;20031;-39
2021/12/22 18:31:02;;;;;;;41.80;23.90;;;-3276.50;91.30;;;;;;5092441;28;20017;-38
2021/12/22 18:33:28;;;;;;;36.53;23.15;;;-3276.50;91.20;;;;;;5093635;28;20074;-39
2021/12/22 18:35:59;;;;;;;44.13;24.40;;;-3276.50;91.30;;;;;;5093477;28;20022;-39
2021/12/22 18:38:27;;;;;;;34.67;23.00;;;-3276.40;91.40;;;;;;5093393;28;20042;-39
2021/12/22 18:41:09;;;;;;;41.22;22.95;;;-3276.30;91.60;;;;;;5093335;28;20039;-39
2021/12/22 18:43:34;;;;;;;35.38;22.98;;;-3276.20;91.60;;;;;;5093640;28;20024;-39
2021/12/22 18:46:02;;;;;;;36.45;24.58;;;-3276.20;91.90;;;;;;5093187;28;20027;-39
2021/12/22 18:48:29;;;;;;;42.00;24.23;;;-3276.40;92.00;;;;;;5095174;28;20049;-38
2021/12/22 18:50:58;;;;;;;44.90;23.58;;;-3276.30;91.70;;;;;;5096142;28;20486;-38
2021/12/22 18:53:25;;;;;;;44.20;25.50;;;-3276.40;91.60;;;;;;5097292;28;20533;-38
2021/12/22 18:55:52;;;;;;;47.22;25.02;;;-3276.40;91.70;;;;;;5097334;28;20049;-39
2021/12/22 18:58:18;;;;;;;42.72;26.83;;;-3276.40;91.60;;;;;;5095719;28;20024;-38
2021/12/22 19:00:47;;;;;;;50.08;24.70;;;-3276.40;91.80;;;;;;5096708;28;20498;-40
2021/12/22 19:03:12;;;;;;;44.78;26.85;;;-3276.50;91.60;;;;;;5096854;28;20380;-38
2021/12/22 19:05:40;;;;;;;43.03;25.23;;;-3276.50;91.40;;;;;;5096716;28;20028;-39
2021/12/22 19:08:08;;;;;;;47.13;25.48;;;-3276.50;91.20;;;;;;5097127;28;20357;-39
2021/12/22 19:10:35;;;;;;;48.83;29.55;;;-3276.50;91.00;;;;;;5096021;28;20081;-39
2021/12/22 19:13:01;;;;;;;47.33;26.42;;;-3276.50;90.90;;;;;;5095937;28;20024;-38
2021/12/22 19:15:28;;;;;;;51.35;28.23;;;-3276.50;90.90;;;;;;5078150;28;20429;-40
2021/12/22 19:17:55;;;;;;;53.65;30.45;;;-3276.40;91.00;;;;;;5096348;28;20024;-40
2021/12/22 19:20:20;;;;;;;54.28;28.83;;;-3276.50;90.90;;;;;;5095139;28;20043;-40
2021/12/22 19:22:46;;;;;;;44.05;28.33;;;-3276.50;90.80;;;;;;5097421;28;20113;-40
2021/12/22 19:25:12;;;;;;;45.95;28.50;;;-3276.50;90.70;;;;;;5096951;28;20065;-40
2021/12/22 19:27:41;;;;;;;44.35;27.40;;;-3276.50;90.70;;;;;;5096047;28;20024;-39
2021/12/22 19:30:08;;;;;;;44.47;26.13;;;-3276.40;90.50;;;;;;5097600;28;20103;-39
2021/12/22 19:32:34;;;;;;;44.05;26.33;;;-3276.40;90.60;;;;;;5096086;28;20423;-42
2021/12/22 19:35:00;;;;;;;50.63;26.13;;;-3276.40;90.70;;;;;;5096487;28;20024;-44
2021/12/22 19:37:25;;;;;;;43.13;24.75;;;-3276.40;90.70;;;;;;5095174;28;20024;-38
2021/12/22 19:39:51;;;;;;;40.08;24.63;;;-3276.40;90.70;;;;;;5096212;28;20447;-38
2021/12/22 19:42:17;;;;;;;41.42;25.75;;;-3276.50;90.20;;;;;;5096695;28;20387;-39
2021/12/22 19:44:43;;;;;;;47.97;26.48;;;-3276.50;89.80;;;;;;5096090;28;20069;-39
2021/12/22 19:47:10;;;;;;;43.13;25.23;;;-3276.50;89.80;;;;;;5096034;28;20032;-38
2021/12/22 19:49:37;;;;;;;39.17;24.23;;;-3276.40;89.60;;;;;;5096015;28;20056;-39
2021/12/22 19:52:03;;;;;;;55.70;28.13;;;-3276.40;89.60;;;;;;5095322;28;20020;-38
2021/12/22 19:54:29;;;;;;;39.83;23.25;;;-3276.50;89.50;;;;;;5095775;28;20391;-40
2021/12/22 19:56:55;;;;;;;38.05;21.70;;;-3276.50;89.20;;;;;;5096046;28;20024;-39
2021/12/22 19:59:21;;;;;;;46.70;23.38;;;-3276.50;89.20;;;;;;5095833;28;20468;-39
2021/12/22 20:01:47;;;;;;;43.45;23.67;;;-3276.50;89.20;;;;;;5095547;28;20040;-37
2021/12/22 20:04:12;;;;;;;30.88;20.23;;;-3276.50;88.90;;;;;;5096484;28;20029;-39
2021/12/22 20:06:40;;;;;;;37.72;22.38;;;-3276.50;88.70;;;;;;5095987;28;20020;-39
2021/12/22 20:09:06;;;;;;;37.00;22.48;;;-3276.50;88.50;;;;;;5095828;28;20480;-39
2021/12/22 20:11:32;;;;;;;38.15;21.00;;;-3276.60;88.30;;;;;;5095643;28;20107;-39
2021/12/22 20:13:58;;;;;;;37.50;21.15;;;-3276.70;87.60;;;;;;5095282;28;20093;-40
2021/12/22 20:16:23;;;;;;;40.30;19.23;;;-3276.70;87.50;;;;;;5095900;28;20099;-39
2021/12/22 20:18:50;;;;;;;30.13;16.30;;;-3276.70;87.10;;;;;;5095654;28;20088;-38
2021/12/22 20:21:17;;;;;;;35.03;21.48;;;-3276.70;86.70;;;;;;5095746;28;20024;-39
2021/12/22 20:23:44;;;;;;;37.67;18.25;;;-3276.70;86.30;;;;;;5096483;28;20032;-39
2021/12/22 20:26:10;;;;;;;23.38;16.75;;;-3276.70;86.00;;;;;;5095129;28;20096;-41
2021/12/22 20:28:36;;;;;;;29.33;17.15;;;-3276.70;86.00;;;;;;5096233;28;20035;-38
2021/12/22 20:31:02;;;;;;;30.73;18.30;;;-3276.60;85.70;;;;;;5096478;28;20024;-40
2021/12/22 20:33:28;;;;;;;38.75;17.73;;;-3276.70;85.90;;;;;;5095686;28;20024;-39
2021/12/22 20:35:53;;;;;;;26.52;16.23;;;-3276.70;85.50;;;;;;5094889;28;20475;-39
2021/12/22 20:38:19;;;;;;;27.48;14.35;;;-3276.70;85.40;;;;;;5095104;28;20028;-40
2021/12/22 20:40:45;;;;;;;27.33;15.50;;;-3276.70;85.00;;;;;;5096330;28;20495;-39
2021/12/22 20:43:12;;;;;;;30.42;17.13;;;-3276.70;85.10;;;;;;5095727;28;20028;-38
2021/12/22 20:45:44;;;;;;;26.02;15.75;;;-3276.70;85.10;;;;;;5095172;28;20020;-38
2021/12/22 20:48:10;;;;;;;37.38;17.65;;;0.00;84.60;;;;;;5095378;28;20026;-38
2021/12/22 20:50:38;;;;;;;31.17;17.58;;;0.10;84.00;;;;;;5094845;28;20084;-39
2021/12/22 20:53:05;;;;;;;29.58;16.77;;;0.10;83.30;;;;;;5095402;28;20031;-39
2021/12/22 20:55:34;;;;;;;33.35;17.83;;;0.10;83.50;;;;;;5094576;28;20028;-39
2021/12/22 20:58:00;;;;;;;25.42;14.40;;;0.10;83.70;;;;;;5094908;28;20061;-39
2021/12/22 21:00:28;;;;;;;35.03;16.65;;;0.00;83.70;;;;;;5095234;28;20103;-39
2021/12/22 21:02:55;;;;;;;24.10;15.32;;;0.10;83.80;;;;;;5094355;28;20047;-39
2021/12/22 21:05:21;;;;;;;31.58;15.13;;;0.20;82.60;;;;;;5094428;28;20016;-39
2021/12/22 21:07:47;;;;;;;27.65;15.98;;;0.10;82.30;;;;;;5094591;28;20061;-39
2021/12/22 21:10:16;;;;;;;29.83;15.13;;;0.10;82.60;;;;;;5094786;28;20372;-39
2021/12/22 21:12:47;;;;;;;23.77;14.65;;;0.10;82.00;;;;;;5094250;28;20028;-39
2021/12/22 21:15:14;;;;;;;24.45;14.63;;;0.30;81.60;;;;;;5094526;28;20032;-38
2021/12/22 21:17:39;;;;;;;24.20;13.95;;;0.20;80.80;;;;;;5094516;28;20332;-39
2021/12/22 21:20:08;;;;;;;24.13;14.63;;;0.10;81.10;;;;;;5094487;28;20099;-39
2021/12/22 21:22:33;;;;;;;25.15;15.35;;;0.20;81.20;;;;;;5094296;28;20023;-39
2021/12/22 21:24:59;;;;;;;28.15;13.93;;;0.40;80.70;;;;;;5094536;28;20073;-38
2021/12/22 21:27:25;;;;;;;23.58;14.50;;;0.40;80.30;;;;;;5093099;28;20020;-37
2021/12/22 21:29:53;;;;;;;28.58;15.07;;;0.40;79.70;;;;;;5094922;28;20568;-39
2021/12/22 21:32:19;;;;;;;22.25;12.77;;;0.30;80.10;;;;;;5093786;28;20028;-38
2021/12/22 21:34:45;;;;;;;24.65;14.50;;;0.30;80.40;;;;;;5094215;28;20063;-39
2021/12/22 21:37:11;;;;;;;23.58;13.68;;;0.20;80.80;;;;;;5095061;28;20035;-39
2021/12/22 21:39:37;;;;;;;23.55;13.43;;;0.30;80.70;;;;;;5092686;28;20039;-40
2021/12/22 21:42:04;;;;;;;23.25;13.93;;;0.20;80.60;;;;;;5092972;28;20123;-39
2021/12/22 21:44:30;;;;;;;25.77;15.15;;;0.00;81.80;;;;;;5092890;28;20024;-39
2021/12/22 21:46:56;;;;;;;28.50;15.52;;;0.10;82.10;;;;;;5094437;28;20034;-39
2021/12/22 21:49:21;;;;;;;25.98;15.02;;;0.00;81.90;;;;;;5094648;28;20047;-39
2021/12/22 21:51:47;;;;;;;20.75;12.40;;;0.20;81.60;;;;;;5093919;28;20099;-39
2021/12/22 21:54:13;;;;;;;22.80;14.23;;;0.20;80.80;;;;;;5093366;28;20070;-39
2021/12/22 21:56:38;;;;;;;28.63;14.57;;;0.00;80.90;;;;;;5093872;28;20111;-39
2021/12/22 21:59:04;;;;;;;22.95;14.00;;;-3276.70;81.60;;;;;;5094078;28;20163;-39
2021/12/22 22:01:30;;;;;;;27.20;15.40;;;0.00;81.80;;;;;;5093356;28;20081;-39
2021/12/22 22:03:56;;;;;;;24.02;13.82;;;0.00;81.30;;;;;;5093437;28;20027;-39
2021/12/22 22:06:23;;;;;;;25.42;13.85;;;0.00;81.40;;;;;;5093502;28;20039;-39
2021/12/22 22:08:49;;;;;;;20.92;12.63;;;0.30;80.60;;;;;;5094398;28;20025;-39
2021/12/22 22:11:15;;;;;;;26.10;13.98;;;0.20;80.40;;;;;;5093824;28;20039;-39
2021/12/22 22:13:41;;;;;;;25.23;13.23;;;0.00;80.50;;;;;;5093861;28;20020;-40
2021/12/22 22:16:06;;;;;;;24.75;13.57;;;0.00;81.00;;;;;;5093531;28;20034;-39